sensor_id;sensor_type;location;lat;lon;timestamp;P1;durP1;ratioP1;P2;durP2;ratioP2
34737;SDS011;39910;47.154;27.614;2023-09-12T00:01:46;10.80;;;10.30;;
34737;SDS011;39910;47.154;27.614;2023-09-12T00:04:11;10.98;;;10.48;;
34737;SDS011;39910;47.154;27.614;2023-09-12T00:06:37;11.02;;;10.52;;
34737;SDS011;39910;47.154;27.614;2023-09-12T00:09:02;11.25;;;10.75;;
34737;SDS011;39910;47.154;27.614;2023-09-12T00:11:30;10.85;;;10.35;;
34737;SDS011;39910;47.154;27.614;2023-09-12T00:13:56;11.23;;;10.73;;
34737;SDS011;39910;47.154;27.614;2023-09-12T00:16:21;11.27;;;10.77;;
34737;SDS011;39910;47.154;27.614;2023-09-12T00:18:46;10.98;;;10.48;;
34737;SDS011;39910;47.154;27.614;2023-09-12T00:21:11;11.10;;;10.60;;
34737;SDS011;39910;47.154;27.614;2023-09-12T00:23:37;11.32;;;10.82;;
34737;SDS011;39910;47.154;27.614;2023-09-12T00:26:02;10.93;;;10.43;;
34737;SDS011;39910;47.154;27.614;2023-09-12T00:28:27;11.80;;;11.23;;
34737;SDS011;39910;47.154;27.614;2023-09-12T00:30:53;10.65;;;10.15;;
34737;SDS011;39910;47.154;27.614;2023-09-12T00:33:18;11.15;;;10.65;;
34737;SDS011;39910;47.154;27.614;2023-09-12T00:35:44;10.98;;;10.48;;
34737;SDS011;39910;47.154;27.614;2023-09-12T00:38:09;11.00;;;10.50;;
34737;SDS011;39910;47.154;27.614;2023-09-12T00:40:35;11.48;;;10.98;;
34737;SDS011;39910;47.154;27.614;2023-09-12T00:43:00;10.93;;;10.43;;
34737;SDS011;39910;47.154;27.614;2023-09-12T00:45:26;11.68;;;11.10;;
34737;SDS011;39910;47.154;27.614;2023-09-12T00:47:51;11.18;;;10.68;;
34737;SDS011;39910;47.154;27.614;2023-09-12T00:50:16;11.32;;;10.82;;
34737;SDS011;39910;47.154;27.614;2023-09-12T00:52:43;11.15;;;10.65;;
34737;SDS011;39910;47.154;27.614;2023-09-12T00:55:08;10.63;;;10.13;;
34737;SDS011;39910;47.154;27.614;2023-09-12T00:57:34;11.02;;;10.52;;
34737;SDS011;39910;47.154;27.614;2023-09-12T00:59:59;10.88;;;10.38;;
34737;SDS011;39910;47.154;27.614;2023-09-12T01:02:27;10.90;;;10.40;;
34737;SDS011;39910;47.154;27.614;2023-09-12T01:04:52;11.15;;;10.65;;
34737;SDS011;39910;47.154;27.614;2023-09-12T01:07:17;11.95;;;11.35;;
34737;SDS011;39910;47.154;27.614;2023-09-12T01:09:43;11.23;;;10.73;;
34737;SDS011;39910;47.154;27.614;2023-09-12T01:12:08;11.48;;;10.95;;
34737;SDS011;39910;47.154;27.614;2023-09-12T01:14:37;11.13;;;10.63;;
34737;SDS011;39910;47.154;27.614;2023-09-12T01:17:03;11.57;;;10.98;;
34737;SDS011;39910;47.154;27.614;2023-09-12T01:19:28;11.18;;;10.68;;
34737;SDS011;39910;47.154;27.614;2023-09-12T01:29:48;11.40;;;10.90;;
34737;SDS011;39910;47.154;27.614;2023-09-12T01:32:14;11.25;;;10.75;;
34737;SDS011;39910;47.154;27.614;2023-09-12T01:34:41;11.57;;;10.98;;
34737;SDS011;39910;47.154;27.614;2023-09-12T01:37:07;10.73;;;10.23;;
34737;SDS011;39910;47.154;27.614;2023-09-12T01:39:32;11.02;;;10.52;;
34737;SDS011;39910;47.154;27.614;2023-09-12T01:41:58;11.15;;;10.65;;
34737;SDS011;39910;47.154;27.614;2023-09-12T01:44:24;10.80;;;10.30;;
34737;SDS011;39910;47.154;27.614;2023-09-12T01:46:50;11.50;;;11.00;;
34737;SDS011;39910;47.154;27.614;2023-09-12T01:49:18;10.68;;;10.18;;
34737;SDS011;39910;47.154;27.614;2023-09-12T01:51:45;10.52;;;10.02;;
34737;SDS011;39910;47.154;27.614;2023-09-12T01:54:10;10.38;;;9.90;;
34737;SDS011;39910;47.154;27.614;2023-09-12T01:56:36;11.35;;;10.85;;
34737;SDS011;39910;47.154;27.614;2023-09-12T01:59:02;11.70;;;11.10;;
34737;SDS011;39910;47.154;27.614;2023-09-12T02:01:28;11.00;;;10.50;;
34737;SDS011;39910;47.154;27.614;2023-09-12T02:03:53;10.93;;;10.43;;
34737;SDS011;39910;47.154;27.614;2023-09-12T02:06:19;11.45;;;10.95;;
34737;SDS011;39910;47.154;27.614;2023-09-12T02:08:44;11.20;;;10.70;;
34737;SDS011;39910;47.154;27.614;2023-09-12T02:11:09;10.57;;;10.07;;
34737;SDS011;39910;47.154;27.614;2023-09-12T02:13:35;10.63;;;10.13;;
34737;SDS011;39910;47.154;27.614;2023-09-12T02:16:00;10.95;;;10.45;;
34737;SDS011;39910;47.154;27.614;2023-09-12T02:18:26;10.80;;;10.30;;
34737;SDS011;39910;47.154;27.614;2023-09-12T02:20:51;10.75;;;10.25;;
34737;SDS011;39910;47.154;27.614;2023-09-12T02:23:16;11.10;;;10.60;;
34737;SDS011;39910;47.154;27.614;2023-09-12T02:25:42;10.85;;;10.35;;
34737;SDS011;39910;47.154;27.614;2023-09-12T02:28:07;10.50;;;10.00;;
34737;SDS011;39910;47.154;27.614;2023-09-12T02:30:33;11.30;;;10.80;;
34737;SDS011;39910;47.154;27.614;2023-09-12T02:32:58;11.40;;;10.90;;
34737;SDS011;39910;47.154;27.614;2023-09-12T02:35:23;11.27;;;10.77;;
34737;SDS011;39910;47.154;27.614;2023-09-12T02:37:49;11.20;;;10.70;;
34737;SDS011;39910;47.154;27.614;2023-09-12T02:40:14;10.85;;;10.35;;
34737;SDS011;39910;47.154;27.614;2023-09-12T02:42:39;10.48;;;9.98;;
34737;SDS011;39910;47.154;27.614;2023-09-12T02:45:05;10.45;;;9.95;;
34737;SDS011;39910;47.154;27.614;2023-09-12T02:47:30;10.00;;;9.60;;
34737;SDS011;39910;47.154;27.614;2023-09-12T02:49:56;10.30;;;9.80;;
34737;SDS011;39910;47.154;27.614;2023-09-12T02:52:21;10.82;;;10.32;;
34737;SDS011;39910;47.154;27.614;2023-09-12T02:54:46;10.82;;;10.32;;
34737;SDS011;39910;47.154;27.614;2023-09-12T02:57:11;10.70;;;10.20;;
34737;SDS011;39910;47.154;27.614;2023-09-12T02:59:37;10.93;;;10.43;;
34737;SDS011;39910;47.154;27.614;2023-09-12T03:02:02;10.90;;;10.40;;
34737;SDS011;39910;47.154;27.614;2023-09-12T03:04:27;10.57;;;10.07;;
34737;SDS011;39910;47.154;27.614;2023-09-12T03:06:54;11.57;;;11.00;;
34737;SDS011;39910;47.154;27.614;2023-09-12T03:09:19;11.07;;;10.57;;
34737;SDS011;39910;47.154;27.614;2023-09-12T03:11:45;10.60;;;10.10;;
34737;SDS011;39910;47.154;27.614;2023-09-12T03:14:11;10.82;;;10.23;;
34737;SDS011;39910;47.154;27.614;2023-09-12T03:16:36;10.65;;;10.15;;
34737;SDS011;39910;47.154;27.614;2023-09-12T03:19:02;10.80;;;10.30;;
34737;SDS011;39910;47.154;27.614;2023-09-12T03:21:28;10.60;;;10.10;;
34737;SDS011;39910;47.154;27.614;2023-09-12T03:23:53;10.90;;;10.40;;
34737;SDS011;39910;47.154;27.614;2023-09-12T03:26:19;10.70;;;10.20;;
34737;SDS011;39910;47.154;27.614;2023-09-12T03:28:44;11.00;;;10.50;;
34737;SDS011;39910;47.154;27.614;2023-09-12T03:31:10;11.20;;;10.70;;
34737;SDS011;39910;47.154;27.614;2023-09-12T03:33:39;10.40;;;9.90;;
34737;SDS011;39910;47.154;27.614;2023-09-12T03:36:05;10.52;;;10.02;;
34737;SDS011;39910;47.154;27.614;2023-09-12T03:38:31;10.40;;;9.90;;
34737;SDS011;39910;47.154;27.614;2023-09-12T03:40:56;10.43;;;9.93;;
34737;SDS011;39910;47.154;27.614;2023-09-12T03:43:22;10.88;;;10.38;;
34737;SDS011;39910;47.154;27.614;2023-09-12T03:45:47;10.77;;;10.27;;
34737;SDS011;39910;47.154;27.614;2023-09-12T03:48:12;10.30;;;9.80;;
34737;SDS011;39910;47.154;27.614;2023-09-12T03:50:38;11.25;;;10.75;;
34737;SDS011;39910;47.154;27.614;2023-09-12T03:53:03;10.93;;;10.43;;
34737;SDS011;39910;47.154;27.614;2023-09-12T03:55:28;11.27;;;10.77;;
34737;SDS011;39910;47.154;27.614;2023-09-12T03:57:54;11.15;;;10.65;;
34737;SDS011;39910;47.154;27.614;2023-09-12T04:00:19;10.98;;;10.48;;
34737;SDS011;39910;47.154;27.614;2023-09-12T04:02:44;11.65;;;11.05;;
34737;SDS011;39910;47.154;27.614;2023-09-12T04:05:11;11.20;;;10.70;;
34737;SDS011;39910;47.154;27.614;2023-09-12T04:07:36;10.30;;;9.80;;
34737;SDS011;39910;47.154;27.614;2023-09-12T04:10:01;10.35;;;9.85;;
34737;SDS011;39910;47.154;27.614;2023-09-12T04:12:27;10.75;;;10.25;;
34737;SDS011;39910;47.154;27.614;2023-09-12T04:14:52;11.25;;;10.75;;
34737;SDS011;39910;47.154;27.614;2023-09-12T04:17:19;10.80;;;10.30;;
34737;SDS011;39910;47.154;27.614;2023-09-12T04:19:45;11.35;;;10.85;;
34737;SDS011;39910;47.154;27.614;2023-09-12T04:22:10;11.63;;;11.05;;
34737;SDS011;39910;47.154;27.614;2023-09-12T04:24:35;11.00;;;10.50;;
34737;SDS011;39910;47.154;27.614;2023-09-12T04:27:01;10.95;;;10.45;;
34737;SDS011;39910;47.154;27.614;2023-09-12T04:29:26;10.48;;;9.98;;
34737;SDS011;39910;47.154;27.614;2023-09-12T04:31:52;11.60;;;11.10;;
34737;SDS011;39910;47.154;27.614;2023-09-12T04:34:24;11.70;;;11.20;;
34737;SDS011;39910;47.154;27.614;2023-09-12T04:36:49;11.52;;;11.02;;
34737;SDS011;39910;47.154;27.614;2023-09-12T04:39:14;11.80;;;11.30;;
34737;SDS011;39910;47.154;27.614;2023-09-12T04:41:40;11.43;;;10.93;;
34737;SDS011;39910;47.154;27.614;2023-09-12T04:44:05;11.73;;;11.23;;
34737;SDS011;39910;47.154;27.614;2023-09-12T04:46:30;11.93;;;11.43;;
34737;SDS011;39910;47.154;27.614;2023-09-12T04:48:56;11.75;;;11.25;;
34737;SDS011;39910;47.154;27.614;2023-09-12T04:51:21;12.13;;;11.63;;
34737;SDS011;39910;47.154;27.614;2023-09-12T04:53:46;11.55;;;11.05;;
34737;SDS011;39910;47.154;27.614;2023-09-12T04:56:16;11.88;;;11.38;;
34737;SDS011;39910;47.154;27.614;2023-09-12T04:58:42;12.38;;;11.82;;
34737;SDS011;39910;47.154;27.614;2023-09-12T05:01:07;11.98;;;11.48;;
34737;SDS011;39910;47.154;27.614;2023-09-12T05:03:33;12.10;;;11.60;;
34737;SDS011;39910;47.154;27.614;2023-09-12T05:05:58;11.73;;;11.23;;
34737;SDS011;39910;47.154;27.614;2023-09-12T05:08:25;11.60;;;11.10;;
34737;SDS011;39910;47.154;27.614;2023-09-12T05:10:50;11.80;;;11.30;;
34737;SDS011;39910;47.154;27.614;2023-09-12T05:13:15;11.90;;;11.40;;
34737;SDS011;39910;47.154;27.614;2023-09-12T05:15:41;11.70;;;11.20;;
34737;SDS011;39910;47.154;27.614;2023-09-12T05:18:07;11.57;;;11.07;;
34737;SDS011;39910;47.154;27.614;2023-09-12T05:20:32;12.10;;;11.60;;
34737;SDS011;39910;47.154;27.614;2023-09-12T05:22:58;11.90;;;11.40;;
34737;SDS011;39910;47.154;27.614;2023-09-12T05:25:23;11.85;;;11.35;;
34737;SDS011;39910;47.154;27.614;2023-09-12T05:27:48;11.80;;;11.30;;
34737;SDS011;39910;47.154;27.614;2023-09-12T05:30:13;11.95;;;11.45;;
34737;SDS011;39910;47.154;27.614;2023-09-12T05:32:40;12.00;;;11.50;;
34737;SDS011;39910;47.154;27.614;2023-09-12T05:35:06;11.68;;;11.18;;
34737;SDS011;39910;47.154;27.614;2023-09-12T05:37:31;11.88;;;11.38;;
34737;SDS011;39910;47.154;27.614;2023-09-12T05:39:56;11.77;;;11.27;;
34737;SDS011;39910;47.154;27.614;2023-09-12T05:42:22;11.43;;;10.93;;
34737;SDS011;39910;47.154;27.614;2023-09-12T05:44:48;12.20;;;11.70;;
34737;SDS011;39910;47.154;27.614;2023-09-12T05:47:14;11.73;;;11.23;;
34737;SDS011;39910;47.154;27.614;2023-09-12T05:49:39;11.75;;;11.25;;
34737;SDS011;39910;47.154;27.614;2023-09-12T05:52:05;11.88;;;11.38;;
34737;SDS011;39910;47.154;27.614;2023-09-12T05:54:30;11.88;;;11.38;;
34737;SDS011;39910;47.154;27.614;2023-09-12T05:56:56;11.95;;;11.45;;
34737;SDS011;39910;47.154;27.614;2023-09-12T05:59:21;12.10;;;11.60;;
34737;SDS011;39910;47.154;27.614;2023-09-12T06:01:46;12.13;;;11.63;;
34737;SDS011;39910;47.154;27.614;2023-09-12T06:04:12;12.05;;;11.55;;
34737;SDS011;39910;47.154;27.614;2023-09-12T06:06:37;11.90;;;11.40;;
34737;SDS011;39910;47.154;27.614;2023-09-12T06:09:04;12.07;;;11.57;;
34737;SDS011;39910;47.154;27.614;2023-09-12T06:11:29;11.80;;;11.30;;
34737;SDS011;39910;47.154;27.614;2023-09-12T06:13:55;11.98;;;11.48;;
34737;SDS011;39910;47.154;27.614;2023-09-12T06:16:21;11.93;;;11.43;;
34737;SDS011;39910;47.154;27.614;2023-09-12T06:18:46;12.20;;;11.70;;
34737;SDS011;39910;47.154;27.614;2023-09-12T06:21:13;11.63;;;11.13;;
34737;SDS011;39910;47.154;27.614;2023-09-12T06:23:38;11.77;;;11.27;;
34737;SDS011;39910;47.154;27.614;2023-09-12T06:26:04;11.90;;;11.40;;
34737;SDS011;39910;47.154;27.614;2023-09-12T06:28:30;11.65;;;11.15;;
34737;SDS011;39910;47.154;27.614;2023-09-12T06:30:55;11.77;;;11.27;;
34737;SDS011;39910;47.154;27.614;2023-09-12T06:33:22;11.55;;;11.05;;
34737;SDS011;39910;47.154;27.614;2023-09-12T06:35:48;11.80;;;11.30;;
34737;SDS011;39910;47.154;27.614;2023-09-12T06:38:13;11.98;;;11.48;;
34737;SDS011;39910;47.154;27.614;2023-09-12T06:40:39;11.82;;;11.32;;
34737;SDS011;39910;47.154;27.614;2023-09-12T06:43:04;12.00;;;11.50;;
34737;SDS011;39910;47.154;27.614;2023-09-12T06:45:29;11.77;;;11.27;;
34737;SDS011;39910;47.154;27.614;2023-09-12T06:47:57;12.10;;;11.60;;
34737;SDS011;39910;47.154;27.614;2023-09-12T06:50:23;12.40;;;11.90;;
34737;SDS011;39910;47.154;27.614;2023-09-12T06:52:48;12.05;;;11.55;;
34737;SDS011;39910;47.154;27.614;2023-09-12T06:55:13;11.90;;;11.40;;
34737;SDS011;39910;47.154;27.614;2023-09-12T06:57:39;11.83;;;11.33;;
34737;SDS011;39910;47.154;27.614;2023-09-12T07:00:04;11.95;;;11.45;;
34737;SDS011;39910;47.154;27.614;2023-09-12T07:02:32;11.70;;;11.20;;
34737;SDS011;39910;47.154;27.614;2023-09-12T07:04:58;12.05;;;11.55;;
34737;SDS011;39910;47.154;27.614;2023-09-12T07:07:24;12.02;;;11.52;;
34737;SDS011;39910;47.154;27.614;2023-09-12T07:09:49;11.95;;;11.45;;
34737;SDS011;39910;47.154;27.614;2023-09-12T07:12:14;12.23;;;11.73;;
34737;SDS011;39910;47.154;27.614;2023-09-12T07:14:39;12.20;;;11.70;;
34737;SDS011;39910;47.154;27.614;2023-09-12T07:17:05;12.30;;;11.80;;
34737;SDS011;39910;47.154;27.614;2023-09-12T07:19:31;12.48;;;11.93;;
34737;SDS011;39910;47.154;27.614;2023-09-12T07:21:56;12.23;;;11.73;;
34737;SDS011;39910;47.154;27.614;2023-09-12T07:24:24;12.05;;;11.55;;
34737;SDS011;39910;47.154;27.614;2023-09-12T07:26:50;12.20;;;11.70;;
34737;SDS011;39910;47.154;27.614;2023-09-12T07:29:15;11.97;;;11.47;;
34737;SDS011;39910;47.154;27.614;2023-09-12T07:31:40;11.97;;;11.47;;
34737;SDS011;39910;47.154;27.614;2023-09-12T07:34:06;12.15;;;11.65;;
34737;SDS011;39910;47.154;27.614;2023-09-12T07:36:33;12.32;;;11.82;;
34737;SDS011;39910;47.154;27.614;2023-09-12T07:38:58;12.10;;;11.60;;
34737;SDS011;39910;47.154;27.614;2023-09-12T07:41:24;11.95;;;11.45;;
34737;SDS011;39910;47.154;27.614;2023-09-12T07:43:49;12.15;;;11.65;;
34737;SDS011;39910;47.154;27.614;2023-09-12T07:46:14;12.23;;;11.73;;
34737;SDS011;39910;47.154;27.614;2023-09-12T07:48:40;12.20;;;11.70;;
34737;SDS011;39910;47.154;27.614;2023-09-12T07:51:14;12.23;;;11.73;;
34737;SDS011;39910;47.154;27.614;2023-09-12T07:53:40;12.60;;;12.00;;
34737;SDS011;39910;47.154;27.614;2023-09-12T07:56:05;12.30;;;11.80;;
34737;SDS011;39910;47.154;27.614;2023-09-12T07:58:31;11.82;;;11.32;;
34737;SDS011;39910;47.154;27.614;2023-09-12T08:00:56;12.00;;;11.50;;
34737;SDS011;39910;47.154;27.614;2023-09-12T08:03:21;11.80;;;11.30;;
34737;SDS011;39910;47.154;27.614;2023-09-12T08:05:56;11.93;;;11.43;;
34737;SDS011;39910;47.154;27.614;2023-09-12T08:08:22;11.82;;;11.32;;
34737;SDS011;39910;47.154;27.614;2023-09-12T08:10:48;12.00;;;11.50;;
34737;SDS011;39910;47.154;27.614;2023-09-12T08:13:14;11.95;;;11.45;;
34737;SDS011;39910;47.154;27.614;2023-09-12T08:15:40;12.18;;;11.68;;
34737;SDS011;39910;47.154;27.614;2023-09-12T08:18:06;12.40;;;11.88;;
34737;SDS011;39910;47.154;27.614;2023-09-12T08:20:31;12.30;;;11.80;;
34737;SDS011;39910;47.154;27.614;2023-09-12T08:22:57;12.10;;;11.60;;
34737;SDS011;39910;47.154;27.614;2023-09-12T08:25:22;12.20;;;11.70;;
34737;SDS011;39910;47.154;27.614;2023-09-12T08:27:49;12.07;;;11.57;;
34737;SDS011;39910;47.154;27.614;2023-09-12T08:30:15;12.18;;;11.68;;
34737;SDS011;39910;47.154;27.614;2023-09-12T08:32:40;11.95;;;11.45;;
34737;SDS011;39910;47.154;27.614;2023-09-12T08:35:08;12.15;;;11.65;;
34737;SDS011;39910;47.154;27.614;2023-09-12T08:37:34;12.05;;;11.55;;
34737;SDS011;39910;47.154;27.614;2023-09-12T08:39:59;12.07;;;11.57;;
34737;SDS011;39910;47.154;27.614;2023-09-12T08:42:26;11.90;;;11.40;;
34737;SDS011;39910;47.154;27.614;2023-09-12T08:44:54;12.32;;;11.82;;
34737;SDS011;39910;47.154;27.614;2023-09-12T08:47:19;12.10;;;11.60;;
34737;SDS011;39910;47.154;27.614;2023-09-12T08:49:47;12.20;;;11.70;;
34737;SDS011;39910;47.154;27.614;2023-09-12T08:52:12;12.25;;;11.75;;
34737;SDS011;39910;47.154;27.614;2023-09-12T08:54:38;12.23;;;11.73;;
34737;SDS011;39910;47.154;27.614;2023-09-12T08:57:04;11.98;;;11.48;;
34737;SDS011;39910;47.154;27.614;2023-09-12T08:59:31;12.10;;;11.60;;
34737;SDS011;39910;47.154;27.614;2023-09-12T09:01:57;12.30;;;11.80;;
34737;SDS011;39910;47.154;27.614;2023-09-12T09:04:23;12.02;;;11.52;;
34737;SDS011;39910;47.154;27.614;2023-09-12T09:06:52;12.00;;;11.50;;
34737;SDS011;39910;47.154;27.614;2023-09-12T09:09:17;11.90;;;11.40;;
34737;SDS011;39910;47.154;27.614;2023-09-12T09:11:43;12.13;;;11.63;;
34737;SDS011;39910;47.154;27.614;2023-09-12T09:14:08;11.63;;;11.13;;
34737;SDS011;39910;47.154;27.614;2023-09-12T09:16:34;12.07;;;11.57;;
34737;SDS011;39910;47.154;27.614;2023-09-12T09:19:03;12.25;;;11.75;;
34737;SDS011;39910;47.154;27.614;2023-09-12T09:21:34;11.73;;;11.23;;
34737;SDS011;39910;47.154;27.614;2023-09-12T09:24:01;11.90;;;11.40;;
34737;SDS011;39910;47.154;27.614;2023-09-12T09:26:40;11.95;;;11.45;;
34737;SDS011;39910;47.154;27.614;2023-09-12T09:29:08;11.73;;;11.23;;
34737;SDS011;39910;47.154;27.614;2023-09-12T09:31:33;11.68;;;11.18;;
34737;SDS011;39910;47.154;27.614;2023-09-12T09:33:59;11.60;;;11.10;;
34737;SDS011;39910;47.154;27.614;2023-09-12T09:36:25;12.05;;;11.55;;
34737;SDS011;39910;47.154;27.614;2023-09-12T09:38:50;11.90;;;11.40;;
34737;SDS011;39910;47.154;27.614;2023-09-12T09:41:19;11.80;;;11.30;;
34737;SDS011;39910;47.154;27.614;2023-09-12T09:43:44;12.02;;;11.52;;
34737;SDS011;39910;47.154;27.614;2023-09-12T09:46:14;12.00;;;11.50;;
34737;SDS011;39910;47.154;27.614;2023-09-12T09:48:39;12.57;;;11.98;;
34737;SDS011;39910;47.154;27.614;2023-09-12T09:51:13;11.82;;;11.32;;
34737;SDS011;39910;47.154;27.614;2023-09-12T09:53:38;12.02;;;11.52;;
34737;SDS011;39910;47.154;27.614;2023-09-12T09:58:32;11.85;;;11.35;;
34737;SDS011;39910;47.154;27.614;2023-09-12T10:00:58;11.63;;;11.13;;
34737;SDS011;39910;47.154;27.614;2023-09-12T10:03:24;11.55;;;11.05;;
34737;SDS011;39910;47.154;27.614;2023-09-12T10:05:49;11.25;;;10.75;;
34737;SDS011;39910;47.154;27.614;2023-09-12T10:08:15;11.57;;;11.07;;
34737;SDS011;39910;47.154;27.614;2023-09-12T10:10:42;12.10;;;11.60;;
34737;SDS011;39910;47.154;27.614;2023-09-12T10:13:07;11.82;;;11.32;;
34737;SDS011;39910;47.154;27.614;2023-09-12T10:15:34;11.73;;;11.23;;
34737;SDS011;39910;47.154;27.614;2023-09-12T10:18:02;12.00;;;11.50;;
34737;SDS011;39910;47.154;27.614;2023-09-12T10:20:42;12.00;;;11.50;;
34737;SDS011;39910;47.154;27.614;2023-09-12T10:23:20;11.68;;;11.18;;
34737;SDS011;39910;47.154;27.614;2023-09-12T10:25:48;11.75;;;11.25;;
34737;SDS011;39910;47.154;27.614;2023-09-12T10:28:14;11.60;;;11.10;;
34737;SDS011;39910;47.154;27.614;2023-09-12T10:30:39;11.73;;;11.23;;
34737;SDS011;39910;47.154;27.614;2023-09-12T10:33:05;11.95;;;11.45;;
34737;SDS011;39910;47.154;27.614;2023-09-12T10:35:32;12.00;;;11.50;;
34737;SDS011;39910;47.154;27.614;2023-09-12T10:38:02;11.80;;;11.30;;
34737;SDS011;39910;47.154;27.614;2023-09-12T10:40:31;11.98;;;11.48;;
34737;SDS011;39910;47.154;27.614;2023-09-12T10:42:57;11.98;;;11.48;;
34737;SDS011;39910;47.154;27.614;2023-09-12T10:45:22;11.57;;;11.07;;
34737;SDS011;39910;47.154;27.614;2023-09-12T10:47:48;12.02;;;11.52;;
34737;SDS011;39910;47.154;27.614;2023-09-12T10:50:13;11.98;;;11.48;;
34737;SDS011;39910;47.154;27.614;2023-09-12T10:52:39;11.90;;;11.40;;
34737;SDS011;39910;47.154;27.614;2023-09-12T10:55:06;11.80;;;11.30;;
34737;SDS011;39910;47.154;27.614;2023-09-12T10:57:31;12.00;;;11.50;;
34737;SDS011;39910;47.154;27.614;2023-09-12T11:02:41;11.80;;;11.30;;
34737;SDS011;39910;47.154;27.614;2023-09-12T11:07:55;11.85;;;11.35;;
34737;SDS011;39910;47.154;27.614;2023-09-12T11:10:21;11.60;;;11.10;;
34737;SDS011;39910;47.154;27.614;2023-09-12T11:12:47;11.65;;;11.15;;
34737;SDS011;39910;47.154;27.614;2023-09-12T11:15:14;12.02;;;11.52;;
34737;SDS011;39910;47.154;27.614;2023-09-12T11:17:46;11.68;;;11.18;;
34737;SDS011;39910;47.154;27.614;2023-09-12T11:20:13;11.95;;;11.45;;
34737;SDS011;39910;47.154;27.614;2023-09-12T11:22:39;13.10;;;12.50;;
34737;SDS011;39910;47.154;27.614;2023-09-12T11:25:14;12.07;;;11.57;;
34737;SDS011;39910;47.154;27.614;2023-09-12T11:30:21;11.93;;;11.43;;
34737;SDS011;39910;47.154;27.614;2023-09-12T11:32:47;11.90;;;11.40;;
34737;SDS011;39910;47.154;27.614;2023-09-12T11:35:13;11.90;;;11.40;;
34737;SDS011;39910;47.154;27.614;2023-09-12T11:37:38;11.52;;;11.02;;
34737;SDS011;39910;47.154;27.614;2023-09-12T11:42:41;11.52;;;11.02;;
34737;SDS011;39910;47.154;27.614;2023-09-12T11:45:10;11.63;;;11.13;;
34737;SDS011;39910;47.154;27.614;2023-09-12T11:47:41;11.65;;;11.15;;
34737;SDS011;39910;47.154;27.614;2023-09-12T11:50:07;11.60;;;11.10;;
34737;SDS011;39910;47.154;27.614;2023-09-12T11:52:35;12.00;;;11.50;;
34737;SDS011;39910;47.154;27.614;2023-09-12T11:55:00;11.70;;;11.20;;
34737;SDS011;39910;47.154;27.614;2023-09-12T11:57:26;11.60;;;11.10;;
34737;SDS011;39910;47.154;27.614;2023-09-12T11:59:51;11.40;;;10.90;;
34737;SDS011;39910;47.154;27.614;2023-09-12T12:02:17;11.85;;;11.35;;
34737;SDS011;39910;47.154;27.614;2023-09-12T12:04:43;11.63;;;11.13;;
34737;SDS011;39910;47.154;27.614;2023-09-12T12:07:09;11.65;;;11.15;;
34737;SDS011;39910;47.154;27.614;2023-09-12T12:09:36;11.82;;;11.32;;
34737;SDS011;39910;47.154;27.614;2023-09-12T12:14:33;11.90;;;11.40;;
34737;SDS011;39910;47.154;27.614;2023-09-12T12:17:01;11.90;;;11.40;;
34737;SDS011;39910;47.154;27.614;2023-09-12T12:19:30;12.00;;;11.50;;
34737;SDS011;39910;47.154;27.614;2023-09-12T12:21:55;11.50;;;11.00;;
34737;SDS011;39910;47.154;27.614;2023-09-12T12:24:20;11.80;;;11.30;;
34737;SDS011;39910;47.154;27.614;2023-09-12T12:26:46;11.52;;;11.02;;
34737;SDS011;39910;47.154;27.614;2023-09-12T12:29:11;11.63;;;11.13;;
34737;SDS011;39910;47.154;27.614;2023-09-12T12:31:38;11.85;;;11.35;;
34737;SDS011;39910;47.154;27.614;2023-09-12T12:34:04;11.60;;;11.10;;
34737;SDS011;39910;47.154;27.614;2023-09-12T12:36:29;11.40;;;10.90;;
34737;SDS011;39910;47.154;27.614;2023-09-12T12:38:55;11.45;;;10.95;;
34737;SDS011;39910;47.154;27.614;2023-09-12T12:41:24;11.52;;;11.02;;
34737;SDS011;39910;47.154;27.614;2023-09-12T12:43:51;11.60;;;11.10;;
34737;SDS011;39910;47.154;27.614;2023-09-12T12:46:17;11.65;;;11.15;;
34737;SDS011;39910;47.154;27.614;2023-09-12T12:48:44;11.60;;;11.10;;
34737;SDS011;39910;47.154;27.614;2023-09-12T12:53:45;11.98;;;11.48;;
34737;SDS011;39910;47.154;27.614;2023-09-12T12:56:16;11.90;;;11.40;;
34737;SDS011;39910;47.154;27.614;2023-09-12T12:58:50;11.63;;;11.13;;
34737;SDS011;39910;47.154;27.614;2023-09-12T13:01:16;12.20;;;11.70;;
34737;SDS011;39910;47.154;27.614;2023-09-12T13:03:41;11.90;;;11.40;;
34737;SDS011;39910;47.154;27.614;2023-09-12T13:06:07;11.77;;;11.27;;
34737;SDS011;39910;47.154;27.614;2023-09-12T13:08:38;11.68;;;11.18;;
34737;SDS011;39910;47.154;27.614;2023-09-12T13:11:03;11.80;;;11.30;;
34737;SDS011;39910;47.154;27.614;2023-09-12T13:13:29;11.80;;;11.30;;
34737;SDS011;39910;47.154;27.614;2023-09-12T13:15:54;11.75;;;11.25;;
34737;SDS011;39910;47.154;27.614;2023-09-12T13:18:19;11.73;;;11.23;;
34737;SDS011;39910;47.154;27.614;2023-09-12T13:20:45;11.90;;;11.40;;
34737;SDS011;39910;47.154;27.614;2023-09-12T13:23:10;11.70;;;11.20;;
34737;SDS011;39910;47.154;27.614;2023-09-12T13:25:35;11.63;;;11.13;;
34737;SDS011;39910;47.154;27.614;2023-09-12T13:28:01;11.57;;;11.07;;
34737;SDS011;39910;47.154;27.614;2023-09-12T13:30:26;11.48;;;10.98;;
34737;SDS011;39910;47.154;27.614;2023-09-12T13:32:51;11.57;;;11.07;;
34737;SDS011;39910;47.154;27.614;2023-09-12T13:35:17;11.65;;;11.15;;
34737;SDS011;39910;47.154;27.614;2023-09-12T13:37:42;11.52;;;11.02;;
34737;SDS011;39910;47.154;27.614;2023-09-12T13:40:07;11.60;;;11.10;;
34737;SDS011;39910;47.154;27.614;2023-09-12T13:42:34;11.65;;;11.15;;
34737;SDS011;39910;47.154;27.614;2023-09-12T13:44:59;11.68;;;11.18;;
34737;SDS011;39910;47.154;27.614;2023-09-12T13:47:24;11.82;;;11.32;;
34737;SDS011;39910;47.154;27.614;2023-09-12T13:49:51;11.82;;;11.32;;
34737;SDS011;39910;47.154;27.614;2023-09-12T13:52:21;11.73;;;11.23;;
34737;SDS011;39910;47.154;27.614;2023-09-12T13:54:46;11.35;;;10.85;;
34737;SDS011;39910;47.154;27.614;2023-09-12T13:57:11;11.60;;;11.10;;
34737;SDS011;39910;47.154;27.614;2023-09-12T13:59:37;11.80;;;11.30;;
34737;SDS011;39910;47.154;27.614;2023-09-12T14:02:02;11.82;;;11.32;;
34737;SDS011;39910;47.154;27.614;2023-09-12T14:04:29;11.35;;;10.85;;
34737;SDS011;39910;47.154;27.614;2023-09-12T14:06:54;11.65;;;11.15;;
34737;SDS011;39910;47.154;27.614;2023-09-12T14:09:20;11.73;;;11.23;;
34737;SDS011;39910;47.154;27.614;2023-09-12T14:11:45;11.52;;;11.02;;
34737;SDS011;39910;47.154;27.614;2023-09-12T14:14:13;11.73;;;11.23;;
34737;SDS011;39910;47.154;27.614;2023-09-12T14:16:39;11.90;;;11.40;;
34737;SDS011;39910;47.154;27.614;2023-09-12T14:19:04;11.93;;;11.43;;
34737;SDS011;39910;47.154;27.614;2023-09-12T14:21:29;11.80;;;11.30;;
34737;SDS011;39910;47.154;27.614;2023-09-12T14:23:55;12.10;;;11.60;;
34737;SDS011;39910;47.154;27.614;2023-09-12T14:26:20;11.98;;;11.48;;
34737;SDS011;39910;47.154;27.614;2023-09-12T14:28:45;11.60;;;11.10;;